Time;durP1;ratioP1;P1;durP2;ratioP2;P2;SDS_P1;SDS_P2;PMS_P1;PMS_P2;Temp;Humidity;BMP_temperature;BMP_pressure;BME280_temperature;BME280_humidity;BME280_pressure;Samples;Min_cycle;Max_cycle;Signal;HPM_P1;HPM_P2
2021/11/08 00:01:28;;;;;;;35.97;9.48;;;6.50;92.10;;;;;;5072807;28;19988;-52
2021/11/08 00:03:54;;;;;;;32.92;7.57;;;6.50;91.80;;;;;;5072426;28;20419;-51
2021/11/08 00:06:20;;;;;;;28.92;10.02;;;6.40;91.80;;;;;;5072305;28;20045;-48
2021/11/08 00:08:46;;;;;;;28.02;7.10;;;6.30;92.00;;;;;;5072552;28;20100;-48
2021/11/08 00:11:12;;;;;;;26.58;6.28;;;6.40;92.10;;;;;;5072848;28;20453;-49
2021/11/08 00:13:38;;;;;;;22.73;7.07;;;6.40;92.30;;;;;;5072209;28;20100;-49
2021/11/08 00:21:00;;;;;;;23.08;7.05;;;6.50;92.10;;;;;;5071454;28;20028;-51
2021/11/08 00:23:28;;;;;;;25.13;6.93;;;6.40;92.20;;;;;;5073193;28;20537;-50
2021/11/08 00:25:55;;;;;;;21.90;8.32;;;6.50;92.10;;;;;;5072628;28;20465;-49
2021/11/08 00:28:21;;;;;;;33.20;8.95;;;6.50;92.00;;;;;;5072251;28;20048;-50
2021/11/08 00:30:49;;;;;;;26.80;6.90;;;6.40;92.00;;;;;;5076194;28;20073;-49
2021/11/08 00:33:17;;;;;;;29.73;7.65;;;6.50;92.20;;;;;;5074551;28;20445;-48
2021/11/08 00:35:49;;;;;;;31.77;7.53;;;6.40;92.20;;;;;;5076808;28;20025;-48
2021/11/08 00:38:16;;;;;;;25.30;6.97;;;6.40;92.30;;;;;;5076271;28;20028;-53
2021/11/08 00:40:43;;;;;;;28.00;6.43;;;6.50;92.30;;;;;;5076118;28;20023;-49
2021/11/08 00:43:09;;;;;;;25.65;7.07;;;6.50;92.10;;;;;;5075700;28;20029;-50
2021/11/08 00:45:35;;;;;;;23.38;7.90;;;6.50;92.10;;;;;;5075983;28;20024;-48
2021/11/08 00:48:01;;;;;;;31.25;8.60;;;6.50;92.00;;;;;;5075692;28;20036;-50
2021/11/08 00:50:28;;;;;;;27.58;5.85;;;6.40;92.10;;;;;;5075533;28;20375;-51
2021/11/08 00:52:54;;;;;;;26.50;7.50;;;6.40;92.30;;;;;;5074257;28;20036;-48
2021/11/08 00:55:22;;;;;;;22.02;6.43;;;6.40;92.30;;;;;;5074190;28;20025;-51
2021/11/08 00:57:49;;;;;;;33.17;7.53;;;6.50;92.40;;;;;;5075467;28;20020;-49
2021/11/08 01:00:17;;;;;;;20.67;6.07;;;6.60;92.50;;;;;;5075312;28;20043;-49
2021/11/08 01:02:44;;;;;;;19.20;6.30;;;6.60;92.40;;;;;;5075753;28;20387;-50
2021/11/08 01:05:11;;;;;;;19.98;6.85;;;6.60;92.30;;;;;;5075161;28;20104;-49
2021/11/08 01:07:37;;;;;;;14.52;6.10;;;6.60;92.30;;;;;;5075722;28;20033;-48
2021/11/08 01:10:08;;;;;;;20.92;6.60;;;6.70;92.20;;;;;;5075403;28;20509;-49
2021/11/08 01:12:33;;;;;;;;;;;6.70;92.20;;;;;;5075716;28;20017;-49
2021/11/08 01:14:59;;;;;;;23.77;7.10;;;6.80;91.90;;;;;;5075125;28;19953;-50
2021/11/08 01:17:25;;;;;;;31.73;9.30;;;6.90;91.70;;;;;;5075243;28;20021;-50
2021/11/08 01:19:51;;;;;;;26.10;6.85;;;7.00;91.30;;;;;;5075346;28;20464;-52
2021/11/08 01:22:19;;;;;;;22.60;6.93;;;7.00;91.10;;;;;;5075288;28;20037;-51
2021/11/08 01:24:54;;;;;;;24.77;6.65;;;7.00;91.00;;;;;;5075210;28;20112;-49
2021/11/08 01:27:39;;;;;;;28.80;5.68;;;7.00;91.20;;;;;;5074924;28;20020;-50
2021/11/08 01:30:20;;;;;;;23.38;7.75;;;7.10;91.00;;;;;;5074902;28;20028;-48
2021/11/08 01:32:55;;;;;;;22.42;7.03;;;7.10;91.10;;;;;;5074968;28;20059;-50
2021/11/08 01:35:29;;;;;;;20.13;5.95;;;7.10;90.70;;;;;;5075044;28;20085;-53
2021/11/08 01:38:03;;;;;;;19.13;6.70;;;7.20;90.80;;;;;;5075015;28;20032;-49
2021/11/08 01:40:30;;;;;;;25.50;7.10;;;7.20;90.70;;;;;;5073920;28;20024;-49
2021/11/08 01:42:56;;;;;;;23.85;7.32;;;7.00;90.90;;;;;;5074836;28;20026;-48
2021/11/08 01:45:21;;;;;;;20.95;6.68;;;7.10;91.00;;;;;;5075068;28;20028;-52
2021/11/08 01:47:47;;;;;;;27.60;7.40;;;7.10;91.00;;;;;;5074518;28;20476;-49
2021/11/08 01:50:13;;;;;;;25.27;7.97;;;7.20;91.00;;;;;;5074745;28;20032;-51
2021/11/08 01:52:38;;;;;;;24.90;7.43;;;7.20;91.10;;;;;;5074320;28;20025;-49
2021/11/08 01:55:05;;;;;;;26.15;6.22;;;7.30;91.00;;;;;;5074636;28;20029;-51
2021/11/08 01:57:31;;;;;;;17.05;5.55;;;7.40;90.50;;;;;;5073222;28;20020;-48
2021/11/08 01:59:59;;;;;;;21.48;7.20;;;7.30;90.20;;;;;;5074353;28;20070;-51
2021/11/08 02:02:26;;;;;;;20.13;6.20;;;7.30;90.60;;;;;;5074255;28;20032;-49
2021/11/08 02:04:52;;;;;;;26.58;6.13;;;7.20;90.70;;;;;;5073961;28;20031;-51
2021/11/08 02:07:18;;;;;;;21.42;7.65;;;7.10;91.10;;;;;;5072600;28;20056;-49
2021/11/08 02:09:43;;;;;;;31.42;6.78;;;7.30;91.00;;;;;;5073865;28;20072;-51
2021/11/08 02:12:10;;;;;;;21.17;5.82;;;7.30;91.10;;;;;;5074098;28;20024;-48
2021/11/08 02:14:40;;;;;;;19.88;5.47;;;7.30;91.00;;;;;;5073658;28;20081;-46
2021/11/08 02:17:06;;;;;;;23.50;6.47;;;7.20;91.10;;;;;;5074077;28;20475;-49
2021/11/08 02:19:32;;;;;;;27.42;5.95;;;7.20;91.30;;;;;;5073962;28;20440;-48
2021/11/08 02:22:01;;;;;;;13.23;4.80;;;7.20;91.50;;;;;;5074052;28;20021;-53
2021/11/08 02:24:28;;;;;;;26.40;6.82;;;7.10;91.40;;;;;;5074091;28;20064;-47
2021/11/08 02:26:54;;;;;;;20.92;5.22;;;7.20;91.70;;;;;;5074171;28;20500;-47
2021/11/08 02:29:20;;;;;;;17.58;4.72;;;7.20;91.70;;;;;;5074027;28;20024;-48
2021/11/08 02:31:46;;;;;;;25.58;7.40;;;7.20;91.70;;;;;;5073282;28;20035;-51
2021/11/08 02:34:12;;;;;;;32.63;7.65;;;7.30;91.50;;;;;;5073354;28;20020;-47
2021/11/08 02:36:42;;;;;;;18.73;5.82;;;7.30;91.30;;;;;;5073649;28;20028;-48
2021/11/08 02:39:13;;;;;;;18.80;5.47;;;7.30;91.10;;;;;;5073741;28;20028;-47
2021/11/08 02:41:38;;;;;;;23.85;7.18;;;7.20;91.50;;;;;;5073474;28;20082;-48
2021/11/08 02:44:05;;;;;;;22.00;5.35;;;7.20;91.60;;;;;;5073365;28;20020;-49
2021/11/08 02:46:37;;;;;;;24.00;6.63;;;7.20;91.60;;;;;;5073541;28;20033;-49
2021/11/08 02:49:05;;;;;;;18.10;7.05;;;7.20;91.60;;;;;;5073629;28;20107;-47
2021/11/08 02:51:31;;;;;;;23.25;5.90;;;7.30;91.50;;;;;;5074193;28;20056;-48
2021/11/08 02:54:03;;;;;;;26.17;6.13;;;7.20;91.60;;;;;;5073099;28;20064;-49
2021/11/08 02:56:29;;;;;;;28.98;9.65;;;7.30;91.50;;;;;;5073573;28;20032;-49
2021/11/08 02:58:55;;;;;;;23.40;7.22;;;7.20;91.60;;;;;;5073216;28;20092;-48
2021/11/08 03:01:23;;;;;;;20.77;6.95;;;7.20;91.80;;;;;;5073422;28;20537;-49
2021/11/08 03:06:31;;;;;;;28.80;8.02;;;7.10;92.10;;;;;;5072932;28;20040;-50
2021/11/08 03:09:04;;;;;;;29.20;8.27;;;7.10;91.90;;;;;;5073479;28;20566;-48
2021/11/08 03:11:30;;;;;;;30.52;9.48;;;7.10;92.00;;;;;;5073532;28;20086;-56
2021/11/08 03:14:03;;;;;;;31.75;8.93;;;7.00;92.40;;;;;;5073140;28;20021;-51
2021/11/08 03:21:56;;;;;;;47.05;12.07;;;6.90;92.50;;;;;;5073304;28;20028;-49
2021/11/08 03:24:49;;;;;;;44.53;11.40;;;6.80;92.60;;;;;;5073132;28;20374;-49
2021/11/08 03:27:59;;;;;;;34.38;13.75;;;6.80;92.80;;;;;;5072680;28;20041;-47
2021/11/08 03:30:00;;;;;;;50.17;13.90;;;6.80;92.90;;;;;;5072464;28;20485;-51
2021/11/08 03:32:26;;;;;;;36.20;12.32;;;6.70;93.00;;;;;;5071540;28;20090;-51
2021/11/08 03:35:02;;;;;;;42.92;11.20;;;6.70;93.10;;;;;;5072665;28;20108;-48
2021/11/08 03:37:30;;;;;;;32.33;11.25;;;6.60;93.20;;;;;;5072996;28;20024;-48
2021/11/08 03:39:56;;;;;;;36.72;11.88;;;6.60;93.30;;;;;;5072733;28;20070;-48
2021/11/08 03:42:22;;;;;;;44.53;12.45;;;6.50;93.20;;;;;;5072599;28;20032;-48
2021/11/08 03:44:48;;;;;;;36.70;11.60;;;6.50;93.40;;;;;;5072663;28;20030;-48
2021/11/08 03:47:15;;;;;;;38.75;12.05;;;6.40;93.60;;;;;;5072706;28;20028;-48
2021/11/08 03:49:40;;;;;;;46.88;13.10;;;6.40;93.70;;;;;;5072675;28;20028;-50
2021/11/08 03:52:06;;;;;;;41.92;12.23;;;6.30;93.80;;;;;;5072599;28;20051;-52
2021/11/08 03:54:32;;;;;;;36.97;13.43;;;6.30;93.90;;;;;;5072484;28;20360;-47
2021/11/08 03:56:58;;;;;;;31.55;12.80;;;6.30;93.90;;;;;;5072800;28;20095;-51
2021/11/08 03:59:24;;;;;;;29.85;11.35;;;6.30;93.90;;;;;;5071233;28;20082;-49
2021/11/08 04:01:50;;;;;;;45.30;13.43;;;6.20;94.00;;;;;;5072497;28;20059;-49
2021/11/08 04:04:16;;;;;;;51.63;13.10;;;6.30;94.10;;;;;;5074263;28;20440;-50
2021/11/08 04:06:43;;;;;;;34.20;12.75;;;6.30;94.00;;;;;;5076464;28;20044;-49
2021/11/08 04:09:12;;;;;;;48.55;13.52;;;6.30;94.00;;;;;;5076415;28;20401;-49
2021/11/08 04:11:39;;;;;;;50.63;16.35;;;6.30;94.10;;;;;;5076301;28;20029;-48
2021/11/08 04:14:06;;;;;;;58.90;16.05;;;6.40;94.00;;;;;;5076202;28;20028;-50
2021/11/08 04:16:33;;;;;;;40.80;13.30;;;6.40;93.90;;;;;;5076211;28;20024;-48
2021/11/08 04:19:00;;;;;;;31.27;13.05;;;6.40;93.80;;;;;;5076451;28;20052;-48
2021/11/08 04:21:27;;;;;;;47.42;14.60;;;6.50;93.70;;;;;;5075032;28;20482;-50
2021/11/08 04:23:53;;;;;;;41.90;13.65;;;6.40;93.70;;;;;;5074917;28;20024;-50
2021/11/08 04:26:21;;;;;;;41.47;13.13;;;6.50;93.70;;;;;;5076089;28;20085;-47
2021/11/08 04:29:01;;;;;;;50.83;13.07;;;6.40;93.60;;;;;;5076355;28;20025;-48
2021/11/08 04:31:28;;;;;;;43.80;12.63;;;6.50;93.60;;;;;;5076410;28;20464;-46
2021/11/08 04:34:01;;;;;;;40.60;15.50;;;6.50;93.50;;;;;;5076184;28;20116;-50
2021/11/08 04:39:47;;;;;;;38.08;13.23;;;6.40;93.30;;;;;;5076311;28;20116;-48
2021/11/08 04:57:44;;;;;;;47.83;16.67;;;6.30;93.50;;;;;;5075751;28;20028;-48
2021/11/08 05:24:41;;;;;;;47.85;17.98;;;6.20;93.70;;;;;;5074863;28;20047;-48
2021/11/08 05:32:27;;;;;;;54.80;18.38;;;6.20;93.90;;;;;;5075472;28;20044;-50
2021/11/08 05:34:53;;;;;;;51.85;20.48;;;6.20;93.90;;;;;;5074779;28;20043;-51
2021/11/08 05:37:19;;;;;;;59.13;21.20;;;6.20;94.00;;;;;;5074872;28;20419;-48
2021/11/08 05:39:54;;;;;;;53.75;18.38;;;6.20;93.90;;;;;;5074978;28;20024;-47
2021/11/08 05:42:20;;;;;;;58.00;19.25;;;6.10;93.90;;;;;;5075091;28;20028;-49
2021/11/08 05:44:46;;;;;;;58.17;17.90;;;6.10;94.10;;;;;;5074922;28;20035;-52
2021/11/08 05:47:12;;;;;;;53.00;18.60;;;6.10;94.10;;;;;;5074566;28;20394;-47
2021/11/08 05:49:39;;;;;;;45.83;17.38;;;6.10;94.20;;;;;;5074418;28;20021;-48
2021/11/08 05:52:05;;;;;;;57.65;20.70;;;6.00;94.20;;;;;;5074335;28;20029;-48
2021/11/08 05:54:30;;;;;;;48.08;18.08;;;6.00;94.20;;;;;;5074623;28;20488;-49
2021/11/08 05:57:40;;;;;;;47.95;17.73;;;6.00;94.20;;;;;;5074379;28;20017;-46
2021/11/08 06:51:37;;;;;;;55.78;18.20;;;5.80;94.20;;;;;;5073251;28;20434;-48
2021/11/08 06:54:04;;;;;;;47.90;16.33;;;5.80;94.30;;;;;;5072826;28;20135;-47
2021/11/08 06:56:36;;;;;;;48.55;15.80;;;5.80;94.50;;;;;;5072822;28;20496;-48
2021/11/08 06:59:04;;;;;;;45.13;16.38;;;5.80;94.60;;;;;;5072990;28;20052;-52
2021/11/08 07:01:31;;;;;;;41.75;14.32;;;5.80;94.60;;;;;;5073586;28;20016;-52
2021/11/08 07:03:56;;;;;;;52.15;19.45;;;5.80;94.70;;;;;;5073102;28;20396;-48
2021/11/08 07:06:23;;;;;;;47.33;16.48;;;5.80;94.70;;;;;;5072746;28;20052;-48
2021/11/08 07:08:49;;;;;;;43.40;17.38;;;5.80;94.70;;;;;;5073351;28;20126;-48
2021/11/08 07:11:15;;;;;;;46.47;19.40;;;5.80;94.50;;;;;;5073120;28;20082;-51
2021/11/08 07:13:41;;;;;;;35.90;16.15;;;5.80;94.50;;;;;;5073269;28;20032;-49
2021/11/08 07:16:11;;;;;;;50.60;15.25;;;5.80;94.60;;;;;;5073200;28;20024;-48
2021/11/08 07:18:37;;;;;;;40.60;15.03;;;5.80;94.60;;;;;;5071883;28;20025;-51
2021/11/08 07:21:03;;;;;;;50.78;16.30;;;5.80;94.50;;;;;;5072763;28;20593;-50
2021/11/08 07:23:29;;;;;;;40.10;17.70;;;5.80;94.40;;;;;;5072567;28;20021;-49
2021/11/08 07:25:54;;;;;;;46.17;16.70;;;5.80;94.40;;;;;;5072034;28;20031;-50
2021/11/08 07:28:20;;;;;;;48.88;16.50;;;5.90;94.30;;;;;;5072604;28;20047;-48
2021/11/08 07:30:47;;;;;;;46.03;15.80;;;5.90;94.30;;;;;;5071096;28;20409;-49
2021/11/08 07:33:16;;;;;;;56.70;18.25;;;6.10;94.30;;;;;;5071189;28;20573;-48
2021/11/08 07:35:44;;;;;;;51.72;18.85;;;6.10;94.20;;;;;;5072625;28;20530;-48
2021/11/08 07:38:10;;;;;;;49.88;20.80;;;6.20;94.00;;;;;;5071480;28;20035;-48
2021/11/08 07:40:37;;;;;;;52.88;15.82;;;6.20;93.90;;;;;;5071946;28;20064;-49
2021/11/08 07:43:02;;;;;;;53.97;15.43;;;6.30;93.90;;;;;;5071197;28;20433;-47
2021/11/08 07:45:28;;;;;;;40.60;14.52;;;6.60;93.90;;;;;;5072353;28;20024;-49
2021/11/08 07:47:54;;;;;;;40.00;15.85;;;6.80;93.40;;;;;;5073087;28;20024;-48
2021/11/08 07:50:20;;;;;;;34.60;13.05;;;6.90;93.20;;;;;;5073179;28;20033;-48
2021/11/08 07:52:47;;;;;;;42.65;14.32;;;6.90;92.90;;;;;;5070902;28;20024;-49
2021/11/08 07:55:13;;;;;;;62.90;13.80;;;7.00;92.70;;;;;;5070965;28;20035;-48
2021/11/08 07:57:39;;;;;;;35.45;12.90;;;7.30;92.50;;;;;;5072173;28;20032;-51
2021/11/08 08:00:08;;;;;;;30.13;12.07;;;7.40;92.20;;;;;;5071708;28;20029;-49
2021/11/08 08:02:34;;;;;;;37.38;11.85;;;7.40;91.40;;;;;;5071886;28;20135;-49
2021/11/08 08:05:00;;;;;;;29.65;13.38;;;7.50;90.90;;;;;;5071836;28;20025;-49
2021/11/08 08:07:25;;;;;;;38.28;14.93;;;7.60;90.50;;;;;;5071904;28;20139;-49
2021/11/08 08:09:51;;;;;;;44.00;13.38;;;7.60;90.60;;;;;;5071803;28;20106;-49
2021/11/08 08:12:17;;;;;;;33.83;12.60;;;7.50;90.60;;;;;;5072109;28;20104;-48
2021/11/08 08:14:42;;;;;;;37.53;12.57;;;7.50;90.60;;;;;;5071982;28;20063;-48
2021/11/08 08:17:08;;;;;;;37.33;13.25;;;7.60;90.50;;;;;;5072147;28;20032;-48
2021/11/08 08:19:34;;;;;;;36.97;13.13;;;7.70;90.60;;;;;;5071591;28;20021;-50
2021/11/08 08:22:02;;;;;;;39.13;13.52;;;7.60;90.00;;;;;;5070305;28;20028;-48
2021/11/08 08:24:28;;;;;;;38.45;12.15;;;7.70;90.30;;;;;;5072297;28;20021;-48
2021/11/08 08:26:54;;;;;;;37.65;13.38;;;7.60;89.80;;;;;;5072084;28;20032;-49
2021/11/08 08:29:20;;;;;;;50.95;14.20;;;7.70;90.30;;;;;;5071573;28;20454;-51
2021/11/08 08:31:49;;;;;;;51.38;15.50;;;7.80;89.80;;;;;;5070262;28;20024;-48
2021/11/08 08:34:17;;;;;;;56.88;15.73;;;7.80;89.90;;;;;;5071754;28;20039;-50
2021/11/08 08:36:43;;;;;;;40.00;14.20;;;7.80;89.80;;;;;;5070393;28;20048;-49
2021/11/08 08:39:10;;;;;;;41.97;14.13;;;7.90;89.90;;;;;;5069969;28;20021;-48
2021/11/08 08:41:36;;;;;;;39.97;12.95;;;7.80;90.00;;;;;;5071492;28;20021;-48
2021/11/08 08:44:03;;;;;;;36.13;14.38;;;7.80;90.40;;;;;;5071420;28;20059;-48
2021/11/08 08:46:29;;;;;;;43.65;13.88;;;7.90;90.40;;;;;;5071289;28;20477;-49
2021/11/08 08:48:56;;;;;;;34.60;13.45;;;7.90;89.90;;;;;;5071160;28;20052;-49
2021/11/08 08:51:22;;;;;;;42.22;15.35;;;7.90;89.80;;;;;;5074367;28;20506;-48
2021/11/08 08:53:48;;;;;;;39.03;14.23;;;7.90;90.30;;;;;;5074797;28;20029;-47
2021/11/08 08:56:16;;;;;;;44.75;13.80;;;8.10;89.90;;;;;;5075559;28;20025;-49
2021/11/08 08:58:42;;;;;;;47.88;15.57;;;8.20;90.00;;;;;;5073965;28;20059;-47
2021/11/08 09:01:08;;;;;;;43.20;13.05;;;8.30;89.50;;;;;;5075230;28;20024;-50
2021/11/08 09:03:34;;;;;;;35.08;13.07;;;8.40;89.00;;;;;;5075637;28;20024;-48
2021/11/08 09:06:00;;;;;;;33.05;11.88;;;8.40;88.40;;;;;;5073425;28;20492;-48
2021/11/08 09:08:26;;;;;;;43.33;14.95;;;8.30;88.70;;;;;;5074763;28;20086;-50
2021/11/08 09:10:51;;;;;;;31.90;13.65;;;8.30;89.10;;;;;;5074990;28;20077;-50
2021/11/08 09:13:17;;;;;;;43.90;13.40;;;8.30;89.70;;;;;;5074789;28;20333;-50
2021/11/08 09:15:43;;;;;;;39.38;12.70;;;8.60;89.20;;;;;;5074616;28;20429;-51
2021/11/08 09:18:10;;;;;;;35.28;12.32;;;8.80;87.90;;;;;;5074520;28;20070;-48
2021/11/08 09:20:38;;;;;;;33.22;12.73;;;9.00;87.80;;;;;;5074893;28;20166;-50
2021/11/08 09:23:05;;;;;;;36.67;12.77;;;9.00;87.20;;;;;;5075281;28;20025;-50
2021/11/08 09:25:31;;;;;;;31.77;11.30;;;8.90;87.60;;;;;;5074471;28;20021;-48
2021/11/08 09:28:00;;;;;;;51.92;14.30;;;8.70;88.20;;;;;;5073042;28;20023;-48
2021/11/08 09:30:30;;;;;;;41.95;13.20;;;8.50;89.20;;;;;;5074017;28;20020;-50
2021/11/08 09:32:56;;;;;;;41.70;12.80;;;8.40;89.60;;;;;;5074519;28;20025;-48
2021/11/08 09:35:23;;;;;;;32.85;11.55;;;8.50;90.10;;;;;;5073962;28;20035;-50
2021/11/08 09:37:50;;;;;;;36.03;12.20;;;8.80;89.10;;;;;;5074136;28;20428;-51
2021/11/08 09:40:20;;;;;;;44.83;11.35;;;8.50;89.30;;;;;;5073942;28;20017;-51
2021/11/08 09:42:47;;;;;;;29.92;12.70;;;8.70;89.50;;;;;;5072629;28;20024;-47
2021/11/08 09:45:15;;;;;;;44.22;12.02;;;8.80;89.30;;;;;;5073865;28;20040;-53
2021/11/08 09:47:43;;;;;;;32.40;9.98;;;8.80;88.80;;;;;;5074210;28;20444;-47
2021/11/08 09:50:11;;;;;;;33.17;11.48;;;8.80;89.00;;;;;;5074130;28;20029;-48
2021/11/08 09:52:40;;;;;;;36.85;11.77;;;8.80;89.30;;;;;;5072528;28;20043;-48
2021/11/08 09:55:09;;;;;;;33.35;12.10;;;8.80;89.10;;;;;;5074042;28;20099;-49
2021/11/08 09:57:35;;;;;;;28.98;8.88;;;8.80;89.40;;;;;;5072805;28;20024;-50
2021/11/08 10:00:21;;;;;;;27.08;10.35;;;8.80;89.10;;;;;;5074212;28;20021;-49
2021/11/08 10:02:56;;;;;;;31.45;11.23;;;9.00;88.50;;;;;;5073989;28;20028;-54
2021/11/08 10:05:24;;;;;;;38.63;12.27;;;9.00;88.30;;;;;;5072381;28;20041;-47
2021/11/08 10:07:51;;;;;;;32.72;10.77;;;9.00;88.30;;;;;;5073680;28;20111;-49
2021/11/08 10:10:17;;;;;;;33.53;10.48;;;8.90;88.30;;;;;;5073627;28;20063;-48
2021/11/08 10:12:46;;;;;;;36.22;10.63;;;9.10;88.40;;;;;;5073757;28;20024;-48
2021/11/08 10:15:12;;;;;;;35.88;11.65;;;9.30;87.90;;;;;;5073543;28;20024;-49
2021/11/08 10:17:40;;;;;;;41.88;12.80;;;9.30;87.70;;;;;;5073262;28;20093;-52
2021/11/08 10:20:07;;;;;;;40.83;12.65;;;9.30;87.70;;;;;;5071682;28;20021;-50
2021/11/08 10:22:32;;;;;;;41.30;14.73;;;9.50;87.80;;;;;;5073526;28;20048;-49
2021/11/08 10:25:03;;;;;;;34.83;11.48;;;9.50;87.80;;;;;;5073472;28;20068;-52
2021/11/08 10:27:50;;;;;;;32.33;10.75;;;9.30;87.70;;;;;;5073495;28;20424;-50
2021/11/08 10:30:28;;;;;;;40.03;12.30;;;9.50;87.70;;;;;;5072089;28;20047;-51
2021/11/08 10:33:12;;;;;;;51.97;13.65;;;9.40;87.40;;;;;;5072222;28;20031;-48
2021/11/08 10:35:52;;;;;;;28.25;11.57;;;9.50;87.20;;;;;;5072481;28;20100;-47
2021/11/08 10:38:24;;;;;;;30.13;12.15;;;9.70;86.60;;;;;;5072426;28;20089;-52
2021/11/08 10:41:01;;;;;;;34.47;10.20;;;9.80;86.50;;;;;;5073202;28;20021;-49
2021/11/08 10:43:33;;;;;;;38.67;11.82;;;9.90;86.00;;;;;;5073082;28;20040;-49
2021/11/08 10:46:03;;;;;;;28.73;8.88;;;10.10;85.60;;;;;;5072735;28;20028;-50
2021/11/08 10:48:32;;;;;;;42.58;9.25;;;10.20;84.90;;;;;;5073472;28;20012;-50
2021/11/08 10:51:02;;;;;;;22.00;8.90;;;10.40;84.90;;;;;;5071137;28;20115;-48
2021/11/08 10:53:32;;;;;;;26.60;9.32;;;10.80;83.00;;;;;;5072601;28;20052;-49
2021/11/08 10:56:06;;;;;;;26.63;8.68;;;11.10;82.20;;;;;;5072596;28;20036;-50
2021/11/08 10:58:32;;;;;;;27.65;9.38;;;11.00;81.60;;;;;;5072820;28;20024;-48
2021/11/08 11:01:02;;;;;;;40.50;12.88;;;10.90;81.50;;;;;;5072550;28;20123;-50
2021/11/08 11:03:28;;;;;;;22.93;9.13;;;11.20;81.10;;;;;;5072868;28;20444;-50
2021/11/08 11:06:05;;;;;;;32.10;9.32;;;11.00;80.70;;;;;;5072065;28;20151;-49
2021/11/08 11:08:32;;;;;;;29.42;8.63;;;10.80;81.90;;;;;;5072631;28;20040;-48
2021/11/08 11:11:02;;;;;;;22.33;8.18;;;10.80;82.00;;;;;;5072010;28;20052;-48
2021/11/08 11:13:29;;;;;;;25.60;9.20;;;10.90;81.40;;;;;;5071122;28;20024;-49
2021/11/08 11:16:01;;;;;;;37.58;9.80;;;10.80;81.50;;;;;;5072103;28;20024;-48
2021/11/08 11:18:35;;;;;;;27.90;9.15;;;10.80;81.80;;;;;;5072609;28;20067;-47
2021/11/08 11:21:20;;;;;;;24.88;9.30;;;10.80;82.20;;;;;;5072960;28;20518;-47
2021/11/08 11:23:50;;;;;;;40.83;12.02;;;10.80;82.00;;;;;;5072663;28;20047;-49
2021/11/08 11:26:20;;;;;;;28.27;9.90;;;11.10;81.30;;;;;;5072626;28;20052;-49
2021/11/08 11:28:48;;;;;;;30.43;9.50;;;11.00;81.50;;;;;;5072629;28;20025;-51
2021/11/08 11:31:19;;;;;;;33.30;10.55;;;11.20;81.30;;;;;;5072323;28;20036;-48
2021/11/08 11:33:46;;;;;;;30.13;8.63;;;11.30;80.80;;;;;;5072378;28;20020;-50
2021/11/08 11:36:18;;;;;;;32.95;10.40;;;11.50;80.20;;;;;;5070721;28;20402;-50
2021/11/08 11:38:54;;;;;;;29.45;10.98;;;11.60;79.20;;;;;;5071891;28;20029;-48
2021/11/08 11:41:23;;;;;;;27.88;7.88;;;11.30;80.20;;;;;;5072310;28;20078;-50
2021/11/08 11:43:55;;;;;;;32.28;9.35;;;11.20;80.00;;;;;;5071884;28;20199;-47
2021/11/08 11:46:23;;;;;;;22.23;7.28;;;11.10;79.70;;;;;;5072313;28;20097;-51
2021/11/08 11:48:53;;;;;;;21.63;7.78;;;11.20;80.00;;;;;;5072117;28;20017;-51
2021/11/08 11:51:28;;;;;;;27.95;8.95;;;11.10;79.40;;;;;;5072818;28;20017;-48
2021/11/08 11:53:55;;;;;;;27.50;7.68;;;10.90;79.90;;;;;;5072559;28;20044;-49
2021/11/08 11:56:24;;;;;;;22.00;7.50;;;10.90;79.30;;;;;;5072111;28;20021;-50
2021/11/08 11:58:50;;;;;;;26.85;8.50;;;10.80;79.90;;;;;;5072236;28;20028;-48
2021/11/08 12:01:20;;;;;;;20.50;6.60;;;11.00;79.70;;;;;;5071636;28;20033;-48
2021/11/08 12:03:46;;;;;;;24.73;7.15;;;11.00;79.40;;;;;;5072281;28;20028;-49
2021/11/08 12:06:16;;;;;;;23.15;7.38;;;11.00;79.30;;;;;;5071585;28;20048;-48
2021/11/08 12:08:43;;;;;;;20.02;6.00;;;11.10;78.60;;;;;;5071873;28;20059;-50
2021/11/08 12:11:10;;;;;;;17.85;6.25;;;11.10;79.00;;;;;;5071811;28;20027;-49
2021/11/08 12:13:40;;;;;;;22.02;6.45;;;11.20;78.10;;;;;;5071518;28;20052;-51
2021/11/08 12:16:15;;;;;;;;;;;11.20;78.30;;;;;;5072581;28;20032;-49
2021/11/08 12:18:42;;;;;;;22.60;7.57;;;11.10;78.20;;;;;;5071946;28;19961;-49
2021/11/08 12:21:38;;;;;;;23.02;6.32;;;11.10;78.30;;;;;;5072627;28;20017;-48
2021/11/08 12:24:17;;;;;;;22.73;7.03;;;11.30;78.10;;;;;;5072033;28;20045;-51
2021/11/08 12:26:43;;;;;;;24.52;6.75;;;11.30;77.20;;;;;;5075508;28;20101;-48
2021/11/08 12:29:20;;;;;;;17.30;5.68;;;11.30;77.70;;;;;;5075377;28;20116;-50
2021/11/08 12:31:59;;;;;;;17.27;5.30;;;11.30;78.00;;;;;;5074985;28;20028;-49
2021/11/08 12:34:25;;;;;;;29.90;6.18;;;11.30;75.80;;;;;;5075510;28;20056;-49
2021/11/08 12:37:03;;;;;;;20.92;6.13;;;11.30;75.40;;;;;;5075554;28;20102;-49
2021/11/08 12:39:29;;;;;;;27.02;7.72;;;11.30;75.20;;;;;;5074557;28;20440;-50
2021/11/08 12:42:04;;;;;;;21.80;6.22;;;11.40;76.10;;;;;;5073623;28;20383;-48
2021/11/08 12:44:40;;;;;;;28.67;5.88;;;11.30;77.00;;;;;;5075280;28;20109;-48
2021/11/08 12:47:06;;;;;;;32.35;7.25;;;11.40;76.70;;;;;;5075668;28;20102;-48
2021/11/08 12:49:39;;;;;;;15.73;5.85;;;11.40;76.20;;;;;;5075421;28;20075;-50
2021/11/08 12:52:04;;;;;;;22.60;5.35;;;11.60;76.00;;;;;;5075752;28;20120;-49
2021/11/08 12:54:31;;;;;;;20.25;6.47;;;11.30;77.20;;;;;;5075238;28;20051;-48
2021/11/08 12:57:10;;;;;;;23.63;5.55;;;11.30;77.40;;;;;;5074998;28;20507;-50
2021/11/08 12:59:52;;;;;;;19.88;5.25;;;11.30;77.50;;;;;;5075701;28;20095;-48
2021/11/08 13:02:40;;;;;;;20.95;6.40;;;11.20;76.80;;;;;;5075676;28;20476;-49
2021/11/08 13:05:10;;;;;;;25.45;5.30;;;11.40;76.30;;;;;;5074701;28;20112;-48
2021/11/08 13:07:38;;;;;;;19.75;4.68;;;11.50;76.40;;;;;;5074768;28;20107;-47
2021/11/08 13:10:19;;;;;;;27.00;6.43;;;11.60;75.00;;;;;;5074587;28;20107;-52
2021/11/08 13:12:45;;;;;;;25.27;6.40;;;11.40;75.20;;;;;;5075159;28;20468;-48
2021/11/08 13:15:19;;;;;;;22.10;5.40;;;11.30;76.30;;;;;;5074698;28;20117;-49
2021/11/08 13:17:46;;;;;;;14.70;5.15;;;11.20;75.70;;;;;;5074640;28;20071;-49
2021/11/08 13:20:13;;;;;;;20.33;7.25;;;11.30;75.20;;;;;;5074518;28;20025;-48
2021/11/08 13:22:43;;;;;;;18.75;4.70;;;11.10;75.20;;;;;;5073960;28;20025;-49
2021/11/08 13:25:24;;;;;;;24.30;5.97;;;11.10;75.20;;;;;;5074340;28;20028;-48
2021/11/08 13:27:55;;;;;;;;;;;10.90;75.50;;;;;;5074449;28;20031;-48
2021/11/08 13:30:24;;;;;;;29.13;8.43;;;10.80;76.00;;;;;;5074149;28;19908;-47
2021/11/08 13:32:51;;;;;;;22.40;6.07;;;10.80;76.70;;;;;;5073990;28;20036;-53
2021/11/08 13:35:25;;;;;;;30.98;8.88;;;10.80;77.30;;;;;;5074250;28;20463;-48
2021/11/08 13:38:09;;;;;;;28.42;7.90;;;10.80;77.30;;;;;;5073180;28;20463;-47
2021/11/08 13:40:42;;;;;;;16.20;6.07;;;10.70;77.60;;;;;;5074103;28;20012;-49
2021/11/08 13:43:22;;;;;;;18.90;6.15;;;10.70;77.60;;;;;;5073706;28;20078;-50
2021/11/08 13:45:53;;;;;;;;;;;10.80;77.40;;;;;;5074298;28;20122;-49
2021/11/08 13:48:21;;;;;;;;;;;10.80;77.10;;;;;;5072848;28;19912;-48
2021/11/08 13:50:46;;;;;;;21.98;6.47;;;10.80;77.30;;;;;;5074097;28;19957;-48
2021/11/08 13:53:24;;;;;;;23.67;6.78;;;10.80;77.10;;;;;;5073256;28;20028;-48
2021/11/08 13:55:50;;;;;;;15.45;4.88;;;10.80;76.20;;;;;;5073272;28;20073;-47
2021/11/08 13:58:19;;;;;;;18.13;5.68;;;10.80;76.30;;;;;;5073787;28;20033;-48
2021/11/08 14:00:45;;;;;;;24.00;5.20;;;10.80;76.80;;;;;;5072332;28;20364;-51
2021/11/08 14:03:13;;;;;;;20.83;5.15;;;10.80;76.50;;;;;;5072281;28;20426;-49
2021/11/08 14:05:50;;;;;;;18.58;5.32;;;10.80;76.60;;;;;;5073534;28;20193;-49
2021/11/08 14:08:24;;;;;;;28.55;5.72;;;10.80;77.10;;;;;;5073561;28;20189;-48
2021/11/08 14:10:52;;;;;;;15.90;4.80;;;10.80;76.80;;;;;;5073099;28;20021;-51
2021/11/08 14:13:17;;;;;;;19.73;4.85;;;10.80;76.50;;;;;;5073142;28;20036;-48
2021/11/08 14:15:55;;;;;;;32.08;5.68;;;10.90;76.60;;;;;;5072669;28;20031;-49
2021/11/08 14:18:21;;;;;;;20.98;5.15;;;10.90;76.10;;;;;;5073704;28;20103;-49
2021/11/08 14:20:47;;;;;;;21.90;6.32;;;10.90;76.10;;;;;;5071935;28;20427;-50
2021/11/08 14:23:15;;;;;;;18.05;5.80;;;10.90;75.80;;;;;;5072547;28;20021;-51
2021/11/08 14:25:41;;;;;;;23.63;5.97;;;11.00;76.10;;;;;;5073062;28;20553;-47
2021/11/08 14:28:07;;;;;;;29.45;10.07;;;11.00;76.10;;;;;;5073531;28;20017;-48
2021/11/08 14:30:32;;;;;;;36.00;8.10;;;11.10;76.20;;;;;;5073061;28;20115;-50
2021/11/08 14:32:59;;;;;;;21.77;5.65;;;11.10;76.00;;;;;;5073037;28;20030;-50
2021/11/08 14:35:30;;;;;;;22.10;6.22;;;11.00;76.60;;;;;;5071527;28;20052;-49
2021/11/08 14:40:37;;;;;;;21.23;6.63;;;11.10;76.00;;;;;;5073381;28;20067;-48
2021/11/08 14:43:21;;;;;;;24.00;7.22;;;11.10;76.00;;;;;;5073264;28;20035;-49
2021/11/08 14:46:01;;;;;;;25.65;5.50;;;11.10;75.90;;;;;;5074806;28;20036;-47